Sugarloaf Regional (B21)
Carrabassett, ME
Field Elevation: 885
Lat: 45°05.12N  Long: 70°12.98W
CTAF/Unicom Freq: 122.8000
   
    
Weather Advisories
1/31/2015 14:35 Z
Altimeter 29.81" Hg
Wind 350° @ 8 KT
Gusts 20 KT
Visibility 1 SM
Temperature -17° C (1° F)
Dewpoint -22° C (-8° F)
Relative Humidity 66%
Density Altitude --
Condensation Altitude 3,400 feet
Wind Chill -25° C (-13° F)
  Wind and Runways
Indicated Runway = 35
History
 
 
More Info
All DigiWx sites map
 
NOAA Forecast
 
Airport IQ 5010
(39N) Princeton, NJ
(PN44) Upper Gwynedd Heliport
 
about DigiWx
 
FAA Disclaimer: The data displayed is for advisory purposes only and is not to be used for flight planning or operations. For official data, please call (not available) to hear the current automated AWOS voice message.
  METAR B21 311435Z AUTO 35008G20KT 1SM M17/M22 A2981